sensor_id;sensor_type;location;lat;lon;timestamp;P1;durP1;ratioP1;P2;durP2;ratioP2
42332;SDS011;27984;51.476;5.702;2022-10-17T00:01:09;12.25;;;9.98;;
42332;SDS011;27984;51.476;5.702;2022-10-17T00:03:35;14.65;;;10.07;;
42332;SDS011;27984;51.476;5.702;2022-10-17T00:06:05;13.45;;;9.80;;
42332;SDS011;27984;51.476;5.702;2022-10-17T00:08:34;13.57;;;9.85;;
42332;SDS011;27984;51.476;5.702;2022-10-17T00:11:02;14.00;;;9.30;;
42332;SDS011;27984;51.476;5.702;2022-10-17T00:13:30;13.75;;;9.68;;
42332;SDS011;27984;51.476;5.702;2022-10-17T00:15:56;12.80;;;9.82;;
42332;SDS011;27984;51.476;5.702;2022-10-17T00:18:22;18.90;;;10.55;;
42332;SDS011;27984;51.476;5.702;2022-10-17T00:20:48;14.82;;;10.15;;
42332;SDS011;27984;51.476;5.702;2022-10-17T00:23:14;12.73;;;10.25;;
42332;SDS011;27984;51.476;5.702;2022-10-17T00:25:40;13.75;;;9.75;;
42332;SDS011;27984;51.476;5.702;2022-10-17T00:28:10;14.15;;;9.90;;
42332;SDS011;27984;51.476;5.702;2022-10-17T00:30:38;13.52;;;9.98;;
42332;SDS011;27984;51.476;5.702;2022-10-17T00:33:04;10.80;;;8.98;;
42332;SDS011;27984;51.476;5.702;2022-10-17T00:35:30;11.60;;;9.40;;
42332;SDS011;27984;51.476;5.702;2022-10-17T00:37:56;18.90;;;10.35;;
42332;SDS011;27984;51.476;5.702;2022-10-17T00:40:24;16.30;;;10.00;;
42332;SDS011;27984;51.476;5.702;2022-10-17T00:42:50;13.43;;;9.60;;
42332;SDS011;27984;51.476;5.702;2022-10-17T00:45:27;12.98;;;9.15;;
42332;SDS011;27984;51.476;5.702;2022-10-17T00:48:00;14.05;;;10.15;;
42332;SDS011;27984;51.476;5.702;2022-10-17T00:50:32;15.05;;;10.07;;
42332;SDS011;27984;51.476;5.702;2022-10-17T00:53:00;13.98;;;9.77;;
42332;SDS011;27984;51.476;5.702;2022-10-17T00:55:29;14.60;;;10.70;;
42332;SDS011;27984;51.476;5.702;2022-10-17T00:57:57;16.73;;;10.43;;
42332;SDS011;27984;51.476;5.702;2022-10-17T01:00:26;17.95;;;10.50;;
42332;SDS011;27984;51.476;5.702;2022-10-17T01:02:52;15.43;;;11.52;;
42332;SDS011;27984;51.476;5.702;2022-10-17T01:05:18;27.77;;;13.25;;
42332;SDS011;27984;51.476;5.702;2022-10-17T01:07:43;13.43;;;10.57;;
42332;SDS011;27984;51.476;5.702;2022-10-17T01:10:13;17.42;;;11.80;;
42332;SDS011;27984;51.476;5.702;2022-10-17T01:15:20;20.98;;;13.73;;
42332;SDS011;27984;51.476;5.702;2022-10-17T01:31:51;18.17;;;13.52;;
42332;SDS011;27984;51.476;5.702;2022-10-17T01:37:19;21.65;;;13.63;;
42332;SDS011;27984;51.476;5.702;2022-10-17T01:40:11;23.27;;;14.90;;
42332;SDS011;27984;51.476;5.702;2022-10-17T01:45:18;21.73;;;15.05;;
42332;SDS011;27984;51.476;5.702;2022-10-17T01:47:54;20.50;;;14.98;;
42332;SDS011;27984;51.476;5.702;2022-10-17T01:50:24;24.83;;;15.77;;
42332;SDS011;27984;51.476;5.702;2022-10-17T01:53:01;19.08;;;13.23;;
42332;SDS011;27984;51.476;5.702;2022-10-17T01:55:34;25.00;;;15.65;;
42332;SDS011;27984;51.476;5.702;2022-10-17T01:58:04;26.90;;;14.65;;
42332;SDS011;27984;51.476;5.702;2022-10-17T02:00:40;26.35;;;15.07;;
42332;SDS011;27984;51.476;5.702;2022-10-17T02:03:08;23.48;;;15.30;;
42332;SDS011;27984;51.476;5.702;2022-10-17T02:05:39;22.15;;;14.85;;
42332;SDS011;27984;51.476;5.702;2022-10-17T02:08:06;25.98;;;15.57;;
42332;SDS011;27984;51.476;5.702;2022-10-17T02:21:23;21.00;;;14.73;;
42332;SDS011;27984;51.476;5.702;2022-10-17T02:24:05;22.38;;;16.40;;
42332;SDS011;27984;51.476;5.702;2022-10-17T02:26:55;24.20;;;16.15;;
42332;SDS011;27984;51.476;5.702;2022-10-17T02:29:36;20.73;;;14.90;;
42332;SDS011;27984;51.476;5.702;2022-10-17T02:32:12;20.30;;;14.73;;
42332;SDS011;27984;51.476;5.702;2022-10-17T02:34:45;25.13;;;15.95;;
42332;SDS011;27984;51.476;5.702;2022-10-17T02:37:14;21.13;;;14.93;;
42332;SDS011;27984;51.476;5.702;2022-10-17T02:39:46;22.27;;;15.18;;
42332;SDS011;27984;51.476;5.702;2022-10-17T02:42:12;19.45;;;14.77;;
42332;SDS011;27984;51.476;5.702;2022-10-17T02:44:42;21.58;;;14.27;;
42332;SDS011;27984;51.476;5.702;2022-10-17T02:47:16;20.70;;;14.50;;
42332;SDS011;27984;51.476;5.702;2022-10-17T02:49:49;21.17;;;15.18;;
42332;SDS011;27984;51.476;5.702;2022-10-17T02:52:18;20.05;;;15.05;;
42332;SDS011;27984;51.476;5.702;2022-10-17T02:55:11;20.67;;;14.77;;
42332;SDS011;27984;51.476;5.702;2022-10-17T02:57:39;25.00;;;15.93;;
42332;SDS011;27984;51.476;5.702;2022-10-17T03:00:14;27.65;;;14.55;;
42332;SDS011;27984;51.476;5.702;2022-10-17T03:02:44;25.45;;;15.40;;
42332;SDS011;27984;51.476;5.702;2022-10-17T03:05:13;22.88;;;16.23;;
42332;SDS011;27984;51.476;5.702;2022-10-17T03:07:43;26.70;;;15.90;;
42332;SDS011;27984;51.476;5.702;2022-10-17T03:10:14;21.17;;;14.32;;
42332;SDS011;27984;51.476;5.702;2022-10-17T03:12:40;22.90;;;15.43;;
42332;SDS011;27984;51.476;5.702;2022-10-17T03:15:06;27.77;;;16.05;;
42332;SDS011;27984;51.476;5.702;2022-10-17T03:17:35;21.50;;;15.55;;
42332;SDS011;27984;51.476;5.702;2022-10-17T03:20:01;27.58;;;16.98;;
42332;SDS011;27984;51.476;5.702;2022-10-17T03:22:29;25.85;;;16.75;;
42332;SDS011;27984;51.476;5.702;2022-10-17T03:24:58;34.05;;;18.33;;
42332;SDS011;27984;51.476;5.702;2022-10-17T03:27:23;23.35;;;16.85;;
42332;SDS011;27984;51.476;5.702;2022-10-17T03:29:52;24.02;;;16.85;;
42332;SDS011;27984;51.476;5.702;2022-10-17T03:32:17;23.88;;;16.85;;
42332;SDS011;27984;51.476;5.702;2022-10-17T03:34:43;31.15;;;18.67;;
42332;SDS011;27984;51.476;5.702;2022-10-17T03:37:11;28.58;;;17.92;;
42332;SDS011;27984;51.476;5.702;2022-10-17T03:39:36;28.38;;;18.50;;
42332;SDS011;27984;51.476;5.702;2022-10-17T03:42:04;27.75;;;18.65;;
42332;SDS011;27984;51.476;5.702;2022-10-17T03:44:30;36.45;;;19.75;;
42332;SDS011;27984;51.476;5.702;2022-10-17T03:46:58;33.83;;;19.02;;
42332;SDS011;27984;51.476;5.702;2022-10-17T03:49:23;27.10;;;17.80;;
42332;SDS011;27984;51.476;5.702;2022-10-17T03:51:49;27.63;;;16.60;;
42332;SDS011;27984;51.476;5.702;2022-10-17T03:54:17;29.63;;;17.83;;
42332;SDS011;27984;51.476;5.702;2022-10-17T03:56:44;32.45;;;18.98;;
42332;SDS011;27984;51.476;5.702;2022-10-17T03:59:13;31.27;;;19.55;;
42332;SDS011;27984;51.476;5.702;2022-10-17T04:01:40;33.33;;;20.77;;
42332;SDS011;27984;51.476;5.702;2022-10-17T04:04:06;32.45;;;20.08;;
42332;SDS011;27984;51.476;5.702;2022-10-17T04:06:32;35.20;;;20.55;;
42332;SDS011;27984;51.476;5.702;2022-10-17T04:09:03;36.88;;;20.33;;
42332;SDS011;27984;51.476;5.702;2022-10-17T04:11:30;37.70;;;20.70;;
42332;SDS011;27984;51.476;5.702;2022-10-17T04:13:58;34.22;;;20.08;;
42332;SDS011;27984;51.476;5.702;2022-10-17T04:16:24;39.42;;;21.40;;
42332;SDS011;27984;51.476;5.702;2022-10-17T04:18:54;32.88;;;19.90;;
42332;SDS011;27984;51.476;5.702;2022-10-17T04:21:22;34.38;;;21.20;;
42332;SDS011;27984;51.476;5.702;2022-10-17T04:23:51;29.55;;;19.73;;
42332;SDS011;27984;51.476;5.702;2022-10-17T04:26:20;32.47;;;19.90;;
42332;SDS011;27984;51.476;5.702;2022-10-17T04:28:46;33.08;;;20.35;;
42332;SDS011;27984;51.476;5.702;2022-10-17T04:31:12;29.05;;;19.50;;
42332;SDS011;27984;51.476;5.702;2022-10-17T04:33:38;31.30;;;19.33;;
42332;SDS011;27984;51.476;5.702;2022-10-17T04:36:10;30.88;;;19.40;;
42332;SDS011;27984;51.476;5.702;2022-10-17T04:38:37;32.20;;;18.70;;
42332;SDS011;27984;51.476;5.702;2022-10-17T04:41:05;31.10;;;17.42;;
42332;SDS011;27984;51.476;5.702;2022-10-17T04:43:33;26.15;;;17.42;;
42332;SDS011;27984;51.476;5.702;2022-10-17T04:46:08;27.15;;;16.60;;
42332;SDS011;27984;51.476;5.702;2022-10-17T04:48:35;23.90;;;16.92;;
42332;SDS011;27984;51.476;5.702;2022-10-17T04:51:05;25.30;;;15.90;;
42332;SDS011;27984;51.476;5.702;2022-10-17T04:53:33;26.70;;;16.25;;
42332;SDS011;27984;51.476;5.702;2022-10-17T04:56:00;25.23;;;14.80;;
42332;SDS011;27984;51.476;5.702;2022-10-17T04:58:39;21.52;;;14.13;;
42332;SDS011;27984;51.476;5.702;2022-10-17T05:01:06;22.80;;;14.30;;
42332;SDS011;27984;51.476;5.702;2022-10-17T05:03:35;18.48;;;13.23;;
42332;SDS011;27984;51.476;5.702;2022-10-17T05:06:05;24.73;;;15.50;;
42332;SDS011;27984;51.476;5.702;2022-10-17T05:08:31;22.48;;;14.50;;
42332;SDS011;27984;51.476;5.702;2022-10-17T05:11:00;20.02;;;13.82;;
42332;SDS011;27984;51.476;5.702;2022-10-17T05:13:26;21.15;;;13.80;;
42332;SDS011;27984;51.476;5.702;2022-10-17T05:15:51;17.15;;;13.27;;
42332;SDS011;27984;51.476;5.702;2022-10-17T05:18:17;23.33;;;14.10;;
42332;SDS011;27984;51.476;5.702;2022-10-17T05:20:45;22.77;;;13.55;;
42332;SDS011;27984;51.476;5.702;2022-10-17T05:23:13;25.52;;;15.35;;
42332;SDS011;27984;51.476;5.702;2022-10-17T05:25:39;21.30;;;14.48;;
42332;SDS011;27984;51.476;5.702;2022-10-17T05:28:04;23.52;;;13.98;;
42332;SDS011;27984;51.476;5.702;2022-10-17T05:30:30;21.80;;;13.88;;
42332;SDS011;27984;51.476;5.702;2022-10-17T05:32:55;17.15;;;12.40;;
42332;SDS011;27984;51.476;5.702;2022-10-17T05:35:21;21.35;;;14.02;;
42332;SDS011;27984;51.476;5.702;2022-10-17T05:37:49;18.52;;;12.95;;
42332;SDS011;27984;51.476;5.702;2022-10-17T05:40:15;22.13;;;14.07;;
42332;SDS011;27984;51.476;5.702;2022-10-17T05:42:44;17.88;;;13.15;;
42332;SDS011;27984;51.476;5.702;2022-10-17T05:45:11;24.05;;;13.10;;
42332;SDS011;27984;51.476;5.702;2022-10-17T05:47:36;19.08;;;14.15;;
42332;SDS011;27984;51.476;5.702;2022-10-17T05:50:02;20.88;;;13.50;;
42332;SDS011;27984;51.476;5.702;2022-10-17T05:52:28;19.40;;;12.98;;
42332;SDS011;27984;51.476;5.702;2022-10-17T05:54:56;18.73;;;12.35;;
42332;SDS011;27984;51.476;5.702;2022-10-17T05:57:25;23.95;;;12.85;;
42332;SDS011;27984;51.476;5.702;2022-10-17T05:59:50;19.70;;;12.20;;
42332;SDS011;27984;51.476;5.702;2022-10-17T06:02:16;19.67;;;12.57;;
42332;SDS011;27984;51.476;5.702;2022-10-17T06:04:45;17.38;;;12.75;;
42332;SDS011;27984;51.476;5.702;2022-10-17T06:07:12;17.55;;;13.25;;
42332;SDS011;27984;51.476;5.702;2022-10-17T06:09:39;19.90;;;12.05;;
42332;SDS011;27984;51.476;5.702;2022-10-17T06:12:05;20.13;;;12.95;;
42332;SDS011;27984;51.476;5.702;2022-10-17T06:14:31;20.90;;;12.35;;
42332;SDS011;27984;51.476;5.702;2022-10-17T06:17:00;21.38;;;13.35;;
42332;SDS011;27984;51.476;5.702;2022-10-17T06:19:25;20.67;;;13.10;;
42332;SDS011;27984;51.476;5.702;2022-10-17T06:21:51;20.52;;;12.82;;
42332;SDS011;27984;51.476;5.702;2022-10-17T06:24:19;20.05;;;11.93;;
42332;SDS011;27984;51.476;5.702;2022-10-17T06:26:47;18.95;;;13.43;;
42332;SDS011;27984;51.476;5.702;2022-10-17T06:29:16;18.27;;;11.85;;
42332;SDS011;27984;51.476;5.702;2022-10-17T06:31:42;16.63;;;11.85;;
42332;SDS011;27984;51.476;5.702;2022-10-17T06:34:08;19.55;;;11.65;;
42332;SDS011;27984;51.476;5.702;2022-10-17T06:36:34;13.73;;;10.95;;
42332;SDS011;27984;51.476;5.702;2022-10-17T06:39:02;19.55;;;10.98;;
42332;SDS011;27984;51.476;5.702;2022-10-17T06:41:28;14.45;;;10.88;;
42332;SDS011;27984;51.476;5.702;2022-10-17T06:43:53;18.23;;;10.60;;
42332;SDS011;27984;51.476;5.702;2022-10-17T06:46:22;18.42;;;11.10;;
42332;SDS011;27984;51.476;5.702;2022-10-17T06:48:59;12.13;;;10.43;;
42332;SDS011;27984;51.476;5.702;2022-10-17T06:51:24;20.35;;;10.70;;
42332;SDS011;27984;51.476;5.702;2022-10-17T06:53:50;16.60;;;10.38;;
42332;SDS011;27984;51.476;5.702;2022-10-17T06:56:21;14.45;;;10.07;;
42332;SDS011;27984;51.476;5.702;2022-10-17T06:58:48;18.20;;;10.15;;
42332;SDS011;27984;51.476;5.702;2022-10-17T07:01:15;15.55;;;10.10;;
42332;SDS011;27984;51.476;5.702;2022-10-17T07:03:41;15.07;;;10.02;;
42332;SDS011;27984;51.476;5.702;2022-10-17T07:06:08;13.25;;;8.73;;
42332;SDS011;27984;51.476;5.702;2022-10-17T07:08:37;17.40;;;9.40;;
42332;SDS011;27984;51.476;5.702;2022-10-17T07:11:10;12.27;;;8.70;;
42332;SDS011;27984;51.476;5.702;2022-10-17T07:13:40;12.18;;;8.85;;
42332;SDS011;27984;51.476;5.702;2022-10-17T07:16:05;13.65;;;8.40;;
42332;SDS011;27984;51.476;5.702;2022-10-17T07:18:35;14.40;;;8.32;;
42332;SDS011;27984;51.476;5.702;2022-10-17T07:21:04;11.23;;;8.43;;
42332;SDS011;27984;51.476;5.702;2022-10-17T07:23:30;13.00;;;8.40;;
42332;SDS011;27984;51.476;5.702;2022-10-17T07:25:59;9.85;;;7.47;;
42332;SDS011;27984;51.476;5.702;2022-10-17T07:28:26;11.80;;;7.93;;
42332;SDS011;27984;51.476;5.702;2022-10-17T07:30:54;11.50;;;8.38;;
42332;SDS011;27984;51.476;5.702;2022-10-17T07:33:22;12.70;;;7.60;;
42332;SDS011;27984;51.476;5.702;2022-10-17T07:35:48;15.75;;;8.20;;
42332;SDS011;27984;51.476;5.702;2022-10-17T07:38:16;8.80;;;6.60;;
42332;SDS011;27984;51.476;5.702;2022-10-17T07:40:42;13.60;;;6.93;;
42332;SDS011;27984;51.476;5.702;2022-10-17T07:43:13;10.02;;;7.05;;
42332;SDS011;27984;51.476;5.702;2022-10-17T07:45:39;15.88;;;7.55;;
42332;SDS011;27984;51.476;5.702;2022-10-17T07:48:05;8.57;;;7.38;;
42332;SDS011;27984;51.476;5.702;2022-10-17T07:50:33;11.95;;;7.18;;
42332;SDS011;27984;51.476;5.702;2022-10-17T07:52:59;8.95;;;6.55;;
42332;SDS011;27984;51.476;5.702;2022-10-17T07:55:24;11.18;;;6.45;;
42332;SDS011;27984;51.476;5.702;2022-10-17T07:57:50;11.73;;;6.30;;
42332;SDS011;27984;51.476;5.702;2022-10-17T08:00:17;12.43;;;6.50;;
42332;SDS011;27984;51.476;5.702;2022-10-17T08:02:43;11.23;;;5.93;;
42332;SDS011;27984;51.476;5.702;2022-10-17T08:05:09;8.27;;;6.30;;
42332;SDS011;27984;51.476;5.702;2022-10-17T08:07:34;8.20;;;5.70;;
42332;SDS011;27984;51.476;5.702;2022-10-17T08:10:03;8.90;;;5.60;;
42332;SDS011;27984;51.476;5.702;2022-10-17T08:12:29;11.27;;;5.82;;
42332;SDS011;27984;51.476;5.702;2022-10-17T08:14:59;8.93;;;5.40;;
42332;SDS011;27984;51.476;5.702;2022-10-17T08:17:25;7.15;;;5.05;;
42332;SDS011;27984;51.476;5.702;2022-10-17T08:19:51;11.18;;;5.30;;
42332;SDS011;27984;51.476;5.702;2022-10-17T08:22:16;10.20;;;5.22;;
42332;SDS011;27984;51.476;5.702;2022-10-17T08:24:45;9.13;;;5.10;;
42332;SDS011;27984;51.476;5.702;2022-10-17T08:27:13;8.32;;;4.55;;
42332;SDS011;27984;51.476;5.702;2022-10-17T08:29:39;8.80;;;4.60;;
42332;SDS011;27984;51.476;5.702;2022-10-17T08:32:05;6.43;;;4.15;;
42332;SDS011;27984;51.476;5.702;2022-10-17T08:34:31;9.18;;;4.47;;
42332;SDS011;27984;51.476;5.702;2022-10-17T08:36:57;6.88;;;4.20;;
42332;SDS011;27984;51.476;5.702;2022-10-17T08:39:23;10.25;;;4.80;;
42332;SDS011;27984;51.476;5.702;2022-10-17T08:47:20;6.25;;;4.80;;
42332;SDS011;27984;51.476;5.702;2022-10-17T08:49:58;10.55;;;4.63;;
42332;SDS011;27984;51.476;5.702;2022-10-17T08:55:02;8.63;;;4.30;;
42332;SDS011;27984;51.476;5.702;2022-10-17T08:57:28;7.00;;;4.75;;
42332;SDS011;27984;51.476;5.702;2022-10-17T08:59:54;8.80;;;4.93;;
42332;SDS011;27984;51.476;5.702;2022-10-17T09:02:46;11.10;;;4.80;;
42332;SDS011;27984;51.476;5.702;2022-10-17T09:10:51;11.18;;;5.00;;
42332;SDS011;27984;51.476;5.702;2022-10-17T09:23:55;12.50;;;5.72;;
42332;SDS011;27984;51.476;5.702;2022-10-17T09:26:24;11.77;;;6.22;;
42332;SDS011;27984;51.476;5.702;2022-10-17T09:28:54;11.68;;;6.70;;
42332;SDS011;27984;51.476;5.702;2022-10-17T09:33:51;18.90;;;7.32;;
42332;SDS011;27984;51.476;5.702;2022-10-17T09:36:27;19.67;;;7.80;;
42332;SDS011;27984;51.476;5.702;2022-10-17T09:39:03;14.52;;;7.38;;
42332;SDS011;27984;51.476;5.702;2022-10-17T09:41:47;11.30;;;7.72;;
42332;SDS011;27984;51.476;5.702;2022-10-17T09:52:01;14.95;;;8.40;;
42332;SDS011;27984;51.476;5.702;2022-10-17T09:54:34;12.75;;;9.05;;
42332;SDS011;27984;51.476;5.702;2022-10-17T09:57:04;13.90;;;8.38;;
42332;SDS011;27984;51.476;5.702;2022-10-17T09:59:32;12.38;;;8.73;;
42332;SDS011;27984;51.476;5.702;2022-10-17T10:02:06;14.18;;;8.95;;
42332;SDS011;27984;51.476;5.702;2022-10-17T10:04:33;13.93;;;8.80;;
42332;SDS011;27984;51.476;5.702;2022-10-17T10:07:15;11.63;;;8.35;;
42332;SDS011;27984;51.476;5.702;2022-10-17T10:09:44;11.95;;;8.35;;
42332;SDS011;27984;51.476;5.702;2022-10-17T10:12:33;14.85;;;8.35;;
42332;SDS011;27984;51.476;5.702;2022-10-17T10:15:02;13.98;;;9.38;;
42332;SDS011;27984;51.476;5.702;2022-10-17T10:17:58;14.18;;;9.15;;
42332;SDS011;27984;51.476;5.702;2022-10-17T10:20:34;12.43;;;9.15;;
42332;SDS011;27984;51.476;5.702;2022-10-17T10:25:32;19.70;;;10.23;;
42332;SDS011;27984;51.476;5.702;2022-10-17T10:27:59;15.02;;;10.10;;
42332;SDS011;27984;51.476;5.702;2022-10-17T10:30:28;14.60;;;9.30;;
42332;SDS011;27984;51.476;5.702;2022-10-17T10:32:57;14.65;;;10.25;;
42332;SDS011;27984;51.476;5.702;2022-10-17T10:35:30;19.35;;;11.32;;
42332;SDS011;27984;51.476;5.702;2022-10-17T10:37:58;17.08;;;11.23;;
42332;SDS011;27984;51.476;5.702;2022-10-17T10:40:29;19.52;;;11.23;;
42332;SDS011;27984;51.476;5.702;2022-10-17T10:43:01;16.35;;;11.60;;
42332;SDS011;27984;51.476;5.702;2022-10-17T10:48:17;17.73;;;12.18;;
42332;SDS011;27984;51.476;5.702;2022-10-17T10:50:55;20.85;;;13.73;;
42332;SDS011;27984;51.476;5.702;2022-10-17T10:53:37;20.40;;;11.40;;
42332;SDS011;27984;51.476;5.702;2022-10-17T10:58:54;18.50;;;11.35;;
42332;SDS011;27984;51.476;5.702;2022-10-17T11:01:31;19.73;;;12.95;;
42332;SDS011;27984;51.476;5.702;2022-10-17T11:06:45;15.43;;;10.30;;
42332;SDS011;27984;51.476;5.702;2022-10-17T11:12:04;16.63;;;10.80;;
42332;SDS011;27984;51.476;5.702;2022-10-17T11:14:56;18.00;;;11.38;;
42332;SDS011;27984;51.476;5.702;2022-10-17T11:17:44;16.25;;;11.35;;
42332;SDS011;27984;51.476;5.702;2022-10-17T11:25:56;15.93;;;9.43;;
42332;SDS011;27984;51.476;5.702;2022-10-17T11:28:25;14.45;;;9.65;;
42332;SDS011;27984;51.476;5.702;2022-10-17T11:30:59;11.13;;;8.75;;
42332;SDS011;27984;51.476;5.702;2022-10-17T11:33:44;15.70;;;8.98;;
42332;SDS011;27984;51.476;5.702;2022-10-17T11:36:27;12.75;;;8.77;;
42332;SDS011;27984;51.476;5.702;2022-10-17T11:38:57;16.30;;;9.32;;
42332;SDS011;27984;51.476;5.702;2022-10-17T11:46:39;11.50;;;8.85;;
42332;SDS011;27984;51.476;5.702;2022-10-17T11:49:10;16.70;;;8.73;;
42332;SDS011;27984;51.476;5.702;2022-10-17T11:54:44;13.20;;;9.23;;
42332;SDS011;27984;51.476;5.702;2022-10-17T11:59:51;17.45;;;9.43;;
42332;SDS011;27984;51.476;5.702;2022-10-17T12:05:18;10.93;;;9.82;;
42332;SDS011;27984;51.476;5.702;2022-10-17T12:08:00;10.75;;;9.20;;
42332;SDS011;27984;51.476;5.702;2022-10-17T12:10:44;11.90;;;9.00;;
42332;SDS011;27984;51.476;5.702;2022-10-17T12:15:52;12.93;;;9.83;;
42332;SDS011;27984;51.476;5.702;2022-10-17T12:18:25;15.00;;;10.20;;
42332;SDS011;27984;51.476;5.702;2022-10-17T12:20:54;12.07;;;9.15;;
42332;SDS011;27984;51.476;5.702;2022-10-17T12:23:27;14.93;;;10.07;;
42332;SDS011;27984;51.476;5.702;2022-10-17T12:25:55;13.93;;;9.70;;
42332;SDS011;27984;51.476;5.702;2022-10-17T12:28:32;13.18;;;9.57;;
42332;SDS011;27984;51.476;5.702;2022-10-17T12:38:47;19.88;;;12.15;;
42332;SDS011;27984;51.476;5.702;2022-10-17T12:44:34;17.83;;;10.55;;
42332;SDS011;27984;51.476;5.702;2022-10-17T13:05:49;15.47;;;9.90;;
42332;SDS011;27984;51.476;5.702;2022-10-17T13:08:24;14.63;;;9.20;;
42332;SDS011;27984;51.476;5.702;2022-10-17T13:10:53;11.10;;;9.50;;
42332;SDS011;27984;51.476;5.702;2022-10-17T13:13:57;14.68;;;9.70;;
42332;SDS011;27984;51.476;5.702;2022-10-17T13:16:30;19.85;;;9.13;;
42332;SDS011;27984;51.476;5.702;2022-10-17T13:18:58;17.25;;;9.30;;
42332;SDS011;27984;51.476;5.702;2022-10-17T13:21:25;14.93;;;9.65;;
42332;SDS011;27984;51.476;5.702;2022-10-17T13:23:51;19.17;;;9.95;;
42332;SDS011;27984;51.476;5.702;2022-10-17T13:26:25;14.05;;;10.13;;
42332;SDS011;27984;51.476;5.702;2022-10-17T13:29:12;13.75;;;10.60;;
42332;SDS011;27984;51.476;5.702;2022-10-17T13:31:39;18.38;;;11.68;;
42332;SDS011;27984;51.476;5.702;2022-10-17T13:34:14;14.98;;;11.40;;
42332;SDS011;27984;51.476;5.702;2022-10-17T13:36:42;14.80;;;11.17;;
42332;SDS011;27984;51.476;5.702;2022-10-17T13:39:12;18.67;;;11.30;;
42332;SDS011;27984;51.476;5.702;2022-10-17T13:41:42;16.73;;;11.40;;
42332;SDS011;27984;51.476;5.702;2022-10-17T13:44:14;16.90;;;11.70;;
42332;SDS011;27984;51.476;5.702;2022-10-17T13:46:43;18.98;;;11.77;;
42332;SDS011;27984;51.476;5.702;2022-10-17T13:49:10;17.90;;;11.75;;
42332;SDS011;27984;51.476;5.702;2022-10-17T13:51:57;19.42;;;11.85;;
42332;SDS011;27984;51.476;5.702;2022-10-17T13:54:40;18.42;;;12.35;;
42332;SDS011;27984;51.476;5.702;2022-10-17T13:57:22;17.67;;;12.90;;
42332;SDS011;27984;51.476;5.702;2022-10-17T13:59:52;17.88;;;12.57;;
42332;SDS011;27984;51.476;5.702;2022-10-17T14:02:28;23.13;;;12.73;;
42332;SDS011;27984;51.476;5.702;2022-10-17T14:07:43;19.95;;;12.30;;
42332;SDS011;27984;51.476;5.702;2022-10-17T14:12:44;17.30;;;13.18;;
42332;SDS011;27984;51.476;5.702;2022-10-17T14:15:11;20.90;;;13.25;;
42332;SDS011;27984;51.476;5.702;2022-10-17T14:17:42;19.80;;;13.50;;
42332;SDS011;27984;51.476;5.702;2022-10-17T14:20:18;18.80;;;13.27;;
42332;SDS011;27984;51.476;5.702;2022-10-17T14:22:47;21.17;;;13.88;;
42332;SDS011;27984;51.476;5.702;2022-10-17T14:30:40;19.17;;;13.60;;
42332;SDS011;27984;51.476;5.702;2022-10-17T14:33:12;27.15;;;14.98;;
42332;SDS011;27984;51.476;5.702;2022-10-17T14:35:53;22.70;;;13.75;;
42332;SDS011;27984;51.476;5.702;2022-10-17T14:38:20;22.05;;;14.05;;
42332;SDS011;27984;51.476;5.702;2022-10-17T14:41:00;24.17;;;14.95;;
42332;SDS011;27984;51.476;5.702;2022-10-17T14:43:30;18.58;;;13.75;;
42332;SDS011;27984;51.476;5.702;2022-10-17T14:45:57;22.15;;;13.80;;
42332;SDS011;27984;51.476;5.702;2022-10-17T14:48:27;16.83;;;12.10;;
42332;SDS011;27984;51.476;5.702;2022-10-17T14:51:06;18.00;;;12.02;;
42332;SDS011;27984;51.476;5.702;2022-10-17T14:53:32;16.85;;;11.90;;
42332;SDS011;27984;51.476;5.702;2022-10-17T14:55:59;17.33;;;12.25;;
42332;SDS011;27984;51.476;5.702;2022-10-17T14:58:28;16.92;;;11.20;;
42332;SDS011;27984;51.476;5.702;2022-10-17T15:01:00;23.63;;;11.25;;
42332;SDS011;27984;51.476;5.702;2022-10-17T15:03:26;14.93;;;10.88;;
42332;SDS011;27984;51.476;5.702;2022-10-17T15:05:52;15.85;;;11.43;;
42332;SDS011;27984;51.476;5.702;2022-10-17T15:08:19;16.55;;;11.85;;
42332;SDS011;27984;51.476;5.702;2022-10-17T15:10:47;18.90;;;11.98;;
42332;SDS011;27984;51.476;5.702;2022-10-17T15:13:13;18.55;;;11.57;;
42332;SDS011;27984;51.476;5.702;2022-10-17T15:15:39;19.80;;;12.35;;
42332;SDS011;27984;51.476;5.702;2022-10-17T15:18:08;20.55;;;12.75;;
42332;SDS011;27984;51.476;5.702;2022-10-17T15:20:36;17.27;;;12.45;;
42332;SDS011;27984;51.476;5.702;2022-10-17T15:23:02;18.15;;;13.20;;
42332;SDS011;27984;51.476;5.702;2022-10-17T15:25:29;15.82;;;12.68;;
42332;SDS011;27984;51.476;5.702;2022-10-17T15:27:58;19.02;;;13.77;;
42332;SDS011;27984;51.476;5.702;2022-10-17T15:30:26;21.92;;;13.45;;
42332;SDS011;27984;51.476;5.702;2022-10-17T15:32:59;24.77;;;13.00;;
42332;SDS011;27984;51.476;5.702;2022-10-17T15:35:25;22.30;;;13.15;;
42332;SDS011;27984;51.476;5.702;2022-10-17T15:37:54;19.88;;;13.48;;
42332;SDS011;27984;51.476;5.702;2022-10-17T15:40:26;17.92;;;13.18;;
42332;SDS011;27984;51.476;5.702;2022-10-17T15:42:54;16.70;;;13.27;;
42332;SDS011;27984;51.476;5.702;2022-10-17T15:45:23;18.60;;;12.63;;
42332;SDS011;27984;51.476;5.702;2022-10-17T15:48:01;19.55;;;12.63;;
42332;SDS011;27984;51.476;5.702;2022-10-17T15:50:40;17.58;;;11.63;;
42332;SDS011;27984;51.476;5.702;2022-10-17T15:53:11;15.52;;;11.48;;
42332;SDS011;27984;51.476;5.702;2022-10-17T15:55:36;15.68;;;11.00;;
42332;SDS011;27984;51.476;5.702;2022-10-17T15:58:02;15.80;;;11.63;;
42332;SDS011;27984;51.476;5.702;2022-10-17T16:00:28;18.02;;;11.00;;
42332;SDS011;27984;51.476;5.702;2022-10-17T16:02:59;19.70;;;12.55;;
42332;SDS011;27984;51.476;5.702;2022-10-17T16:05:25;16.73;;;12.68;;
42332;SDS011;27984;51.476;5.702;2022-10-17T16:07:52;21.20;;;13.15;;
42332;SDS011;27984;51.476;5.702;2022-10-17T16:10:21;19.63;;;12.90;;
42332;SDS011;27984;51.476;5.702;2022-10-17T16:12:50;19.77;;;12.80;;
42332;SDS011;27984;51.476;5.702;2022-10-17T16:15:18;22.02;;;14.13;;
42332;SDS011;27984;51.476;5.702;2022-10-17T16:17:46;18.75;;;13.40;;
42332;SDS011;27984;51.476;5.702;2022-10-17T16:20:13;23.27;;;13.30;;
42332;SDS011;27984;51.476;5.702;2022-10-17T16:22:39;22.85;;;12.55;;
42332;SDS011;27984;51.476;5.702;2022-10-17T16:25:19;18.05;;;13.00;;
42332;SDS011;27984;51.476;5.702;2022-10-17T16:27:52;16.27;;;13.02;;
42332;SDS011;27984;51.476;5.702;2022-10-17T16:30:20;18.02;;;13.18;;
42332;SDS011;27984;51.476;5.702;2022-10-17T16:32:47;17.55;;;12.57;;
42332;SDS011;27984;51.476;5.702;2022-10-17T16:35:26;18.77;;;12.45;;
42332;SDS011;27984;51.476;5.702;2022-10-17T16:37:53;20.95;;;12.43;;
42332;SDS011;27984;51.476;5.702;2022-10-17T16:40:20;19.13;;;13.18;;
42332;SDS011;27984;51.476;5.702;2022-10-17T16:42:49;20.15;;;13.55;;
42332;SDS011;27984;51.476;5.702;2022-10-17T16:45:19;20.25;;;12.95;;
42332;SDS011;27984;51.476;5.702;2022-10-17T16:47:46;21.35;;;13.02;;
42332;SDS011;27984;51.476;5.702;2022-10-17T16:50:12;19.85;;;13.65;;
42332;SDS011;27984;51.476;5.702;2022-10-17T16:52:38;17.35;;;12.77;;
42332;SDS011;27984;51.476;5.702;2022-10-17T16:55:04;23.50;;;13.52;;
42332;SDS011;27984;51.476;5.702;2022-10-17T16:57:30;21.65;;;13.20;;
42332;SDS011;27984;51.476;5.702;2022-10-17T16:59:56;18.92;;;12.93;;
42332;SDS011;27984;51.476;5.702;2022-10-17T17:02:21;20.20;;;12.45;;
42332;SDS011;27984;51.476;5.702;2022-10-17T17:04:47;18.23;;;12.27;;